sensor_id;sensor_type;location;lat;lon;timestamp;temperature;humidity
22623;DHT22;11478;51.094;7.030;2023-05-25T00:01:23;7.20;99.90
22623;DHT22;11478;51.094;7.030;2023-05-25T00:03:52;7.20;99.90
22623;DHT22;11478;51.094;7.030;2023-05-25T00:06:20;7.20;99.90
22623;DHT22;11478;51.094;7.030;2023-05-25T00:08:46;7.20;99.90
22623;DHT22;11478;51.094;7.030;2023-05-25T00:11:13;7.20;99.90
22623;DHT22;11478;51.094;7.030;2023-05-25T00:13:41;7.20;99.90
22623;DHT22;11478;51.094;7.030;2023-05-25T00:16:09;7.20;99.90
22623;DHT22;11478;51.094;7.030;2023-05-25T00:18:35;7.20;99.90
22623;DHT22;11478;51.094;7.030;2023-05-25T00:21:14;7.20;99.90
22623;DHT22;11478;51.094;7.030;2023-05-25T00:23:41;7.20;99.90
22623;DHT22;11478;51.094;7.030;2023-05-25T00:26:13;7.10;99.90
22623;DHT22;11478;51.094;7.030;2023-05-25T00:28:39;7.10;99.90
22623;DHT22;11478;51.094;7.030;2023-05-25T00:31:08;7.00;99.90
22623;DHT22;11478;51.094;7.030;2023-05-25T00:33:33;7.00;99.90
22623;DHT22;11478;51.094;7.030;2023-05-25T00:36:00;7.00;99.90
22623;DHT22;11478;51.094;7.030;2023-05-25T00:38:27;6.90;99.90
22623;DHT22;11478;51.094;7.030;2023-05-25T00:40:56;6.80;99.90
22623;DHT22;11478;51.094;7.030;2023-05-25T00:43:22;6.80;99.90
22623;DHT22;11478;51.094;7.030;2023-05-25T00:45:49;6.70;99.90
22623;DHT22;11478;51.094;7.030;2023-05-25T00:48:17;6.70;99.90
22623;DHT22;11478;51.094;7.030;2023-05-25T00:50:45;6.80;99.90
22623;DHT22;11478;51.094;7.030;2023-05-25T00:53:12;6.80;99.90
22623;DHT22;11478;51.094;7.030;2023-05-25T00:58:16;6.60;99.90
22623;DHT22;11478;51.094;7.030;2023-05-25T01:00:49;6.60;99.90
22623;DHT22;11478;51.094;7.030;2023-05-25T01:03:19;6.50;99.90
22623;DHT22;11478;51.094;7.030;2023-05-25T01:05:49;6.40;99.90
22623;DHT22;11478;51.094;7.030;2023-05-25T01:08:16;6.40;99.90
22623;DHT22;11478;51.094;7.030;2023-05-25T01:10:51;6.40;99.90
22623;DHT22;11478;51.094;7.030;2023-05-25T01:13:19;6.40;99.90
22623;DHT22;11478;51.094;7.030;2023-05-25T01:15:46;6.40;99.90
22623;DHT22;11478;51.094;7.030;2023-05-25T01:18:14;6.40;99.90
22623;DHT22;11478;51.094;7.030;2023-05-25T01:20:58;6.40;99.90
22623;DHT22;11478;51.094;7.030;2023-05-25T01:23:31;6.40;99.90
22623;DHT22;11478;51.094;7.030;2023-05-25T01:26:04;6.30;99.90
22623;DHT22;11478;51.094;7.030;2023-05-25T01:28:36;6.30;99.90
22623;DHT22;11478;51.094;7.030;2023-05-25T01:31:06;6.30;99.90
22623;DHT22;11478;51.094;7.030;2023-05-25T01:33:32;6.30;99.90
22623;DHT22;11478;51.094;7.030;2023-05-25T01:36:00;6.30;99.90
22623;DHT22;11478;51.094;7.030;2023-05-25T01:38:27;6.30;99.90
22623;DHT22;11478;51.094;7.030;2023-05-25T01:40:53;6.30;99.90
22623;DHT22;11478;51.094;7.030;2023-05-25T01:43:21;6.30;99.90
22623;DHT22;11478;51.094;7.030;2023-05-25T01:45:47;6.20;99.90
22623;DHT22;11478;51.094;7.030;2023-05-25T01:48:24;6.20;99.90
22623;DHT22;11478;51.094;7.030;2023-05-25T01:50:58;6.20;99.90
22623;DHT22;11478;51.094;7.030;2023-05-25T01:56:29;6.10;99.90
22623;DHT22;11478;51.094;7.030;2023-05-25T01:59:08;6.10;99.90
22623;DHT22;11478;51.094;7.030;2023-05-25T02:01:35;6.00;99.90
22623;DHT22;11478;51.094;7.030;2023-05-25T02:04:05;6.00;99.90
22623;DHT22;11478;51.094;7.030;2023-05-25T02:06:30;6.00;99.90
22623;DHT22;11478;51.094;7.030;2023-05-25T02:08:56;6.00;99.90
22623;DHT22;11478;51.094;7.030;2023-05-25T02:11:25;6.00;99.90
22623;DHT22;11478;51.094;7.030;2023-05-25T02:13:52;5.90;99.90
22623;DHT22;11478;51.094;7.030;2023-05-25T02:16:19;5.90;99.90
22623;DHT22;11478;51.094;7.030;2023-05-25T02:18:45;5.90;99.90
22623;DHT22;11478;51.094;7.030;2023-05-25T02:21:14;5.90;99.90
22623;DHT22;11478;51.094;7.030;2023-05-25T02:23:41;5.90;99.90
22623;DHT22;11478;51.094;7.030;2023-05-25T02:26:12;5.90;99.90
22623;DHT22;11478;51.094;7.030;2023-05-25T02:28:38;5.90;99.90
22623;DHT22;11478;51.094;7.030;2023-05-25T02:31:06;5.90;99.90
22623;DHT22;11478;51.094;7.030;2023-05-25T02:33:32;5.90;99.90
22623;DHT22;11478;51.094;7.030;2023-05-25T02:36:00;5.80;99.90
22623;DHT22;11478;51.094;7.030;2023-05-25T02:38:26;5.80;99.90
22623;DHT22;11478;51.094;7.030;2023-05-25T02:40:58;5.80;99.90
22623;DHT22;11478;51.094;7.030;2023-05-25T02:43:23;5.80;99.90
22623;DHT22;11478;51.094;7.030;2023-05-25T02:45:49;5.80;99.90
22623;DHT22;11478;51.094;7.030;2023-05-25T02:48:15;5.90;99.90
22623;DHT22;11478;51.094;7.030;2023-05-25T02:50:42;5.90;99.90
22623;DHT22;11478;51.094;7.030;2023-05-25T02:53:08;5.90;99.90
22623;DHT22;11478;51.094;7.030;2023-05-25T02:55:36;5.90;99.90
22623;DHT22;11478;51.094;7.030;2023-05-25T02:58:05;5.80;99.90
22623;DHT22;11478;51.094;7.030;2023-05-25T03:01:06;5.80;99.90
22623;DHT22;11478;51.094;7.030;2023-05-25T03:03:38;5.80;99.90
22623;DHT22;11478;51.094;7.030;2023-05-25T03:09:07;5.70;99.90
22623;DHT22;11478;51.094;7.030;2023-05-25T03:11:40;5.80;99.90
22623;DHT22;11478;51.094;7.030;2023-05-25T03:14:09;5.80;99.90
22623;DHT22;11478;51.094;7.030;2023-05-25T03:16:37;5.90;99.90
22623;DHT22;11478;51.094;7.030;2023-05-25T03:19:05;5.90;99.90
22623;DHT22;11478;51.094;7.030;2023-05-25T03:21:34;5.80;99.90
22623;DHT22;11478;51.094;7.030;2023-05-25T03:24:09;5.70;99.90
22623;DHT22;11478;51.094;7.030;2023-05-25T03:26:35;5.60;99.90
22623;DHT22;11478;51.094;7.030;2023-05-25T03:29:03;5.50;99.90
22623;DHT22;11478;51.094;7.030;2023-05-25T03:31:31;5.50;99.90
22623;DHT22;11478;51.094;7.030;2023-05-25T03:33:57;5.60;99.90
22623;DHT22;11478;51.094;7.030;2023-05-25T03:36:23;5.60;99.90
22623;DHT22;11478;51.094;7.030;2023-05-25T03:38:53;5.70;99.90
22623;DHT22;11478;51.094;7.030;2023-05-25T03:41:19;5.70;99.90
22623;DHT22;11478;51.094;7.030;2023-05-25T03:44:09;5.60;99.90
22623;DHT22;11478;51.094;7.030;2023-05-25T03:46:35;5.60;99.90
22623;DHT22;11478;51.094;7.030;2023-05-25T03:49:06;5.50;99.90
22623;DHT22;11478;51.094;7.030;2023-05-25T03:51:33;5.50;99.90
22623;DHT22;11478;51.094;7.030;2023-05-25T03:54:00;5.50;99.90
22623;DHT22;11478;51.094;7.030;2023-05-25T03:56:26;5.50;99.90
22623;DHT22;11478;51.094;7.030;2023-05-25T03:59:25;5.50;99.90
22623;DHT22;11478;51.094;7.030;2023-05-25T04:01:51;5.50;99.90
22623;DHT22;11478;51.094;7.030;2023-05-25T04:04:17;5.50;99.90
22623;DHT22;11478;51.094;7.030;2023-05-25T04:06:43;5.50;99.90
22623;DHT22;11478;51.094;7.030;2023-05-25T04:09:16;5.50;99.90
22623;DHT22;11478;51.094;7.030;2023-05-25T04:11:45;5.50;99.90
22623;DHT22;11478;51.094;7.030;2023-05-25T04:14:19;5.40;99.90
22623;DHT22;11478;51.094;7.030;2023-05-25T04:16:48;5.40;99.90
22623;DHT22;11478;51.094;7.030;2023-05-25T04:19:28;5.50;99.90
22623;DHT22;11478;51.094;7.030;2023-05-25T04:21:56;5.50;99.90
22623;DHT22;11478;51.094;7.030;2023-05-25T04:24:45;5.50;99.90
22623;DHT22;11478;51.094;7.030;2023-05-25T04:27:11;5.60;99.90
22623;DHT22;11478;51.094;7.030;2023-05-25T04:29:40;5.70;99.90
22623;DHT22;11478;51.094;7.030;2023-05-25T04:32:06;5.70;99.90
22623;DHT22;11478;51.094;7.030;2023-05-25T04:34:47;5.80;99.90
22623;DHT22;11478;51.094;7.030;2023-05-25T04:37:13;5.90;99.90
22623;DHT22;11478;51.094;7.030;2023-05-25T04:39:49;5.90;99.90
22623;DHT22;11478;51.094;7.030;2023-05-25T04:42:15;6.00;99.90
22623;DHT22;11478;51.094;7.030;2023-05-25T04:45:01;6.00;99.90
22623;DHT22;11478;51.094;7.030;2023-05-25T04:47:29;6.20;99.90
22623;DHT22;11478;51.094;7.030;2023-05-25T04:50:16;6.30;99.90
22623;DHT22;11478;51.094;7.030;2023-05-25T04:52:44;6.30;99.90
22623;DHT22;11478;51.094;7.030;2023-05-25T04:55:18;6.30;99.90
22623;DHT22;11478;51.094;7.030;2023-05-25T04:57:44;6.40;99.90
22623;DHT22;11478;51.094;7.030;2023-05-25T05:00:49;6.40;99.90
22623;DHT22;11478;51.094;7.030;2023-05-25T05:03:14;6.50;99.90
22623;DHT22;11478;51.094;7.030;2023-05-25T05:05:41;6.70;99.90
22623;DHT22;11478;51.094;7.030;2023-05-25T05:08:08;6.80;99.90
22623;DHT22;11478;51.094;7.030;2023-05-25T05:10:36;6.90;99.90
22623;DHT22;11478;51.094;7.030;2023-05-25T05:13:02;7.00;99.90
22623;DHT22;11478;51.094;7.030;2023-05-25T05:15:30;7.00;99.90
22623;DHT22;11478;51.094;7.030;2023-05-25T05:17:57;7.10;99.90
22623;DHT22;11478;51.094;7.030;2023-05-25T05:20:24;7.20;99.90
22623;DHT22;11478;51.094;7.030;2023-05-25T05:22:50;7.20;99.90
22623;DHT22;11478;51.094;7.030;2023-05-25T05:25:25;7.30;99.90
22623;DHT22;11478;51.094;7.030;2023-05-25T05:27:51;7.40;99.90
22623;DHT22;11478;51.094;7.030;2023-05-25T05:30:24;7.40;99.90
22623;DHT22;11478;51.094;7.030;2023-05-25T05:32:49;7.50;99.90
22623;DHT22;11478;51.094;7.030;2023-05-25T05:35:24;7.50;99.90
22623;DHT22;11478;51.094;7.030;2023-05-25T05:37:50;7.60;99.90
22623;DHT22;11478;51.094;7.030;2023-05-25T05:40:16;7.70;99.90
22623;DHT22;11478;51.094;7.030;2023-05-25T05:42:43;7.80;99.90
22623;DHT22;11478;51.094;7.030;2023-05-25T05:45:09;8.00;99.90
22623;DHT22;11478;51.094;7.030;2023-05-25T05:47:35;8.00;99.90
22623;DHT22;11478;51.094;7.030;2023-05-25T05:50:12;8.10;99.90
22623;DHT22;11478;51.094;7.030;2023-05-25T05:52:38;8.20;99.90
22623;DHT22;11478;51.094;7.030;2023-05-25T05:55:07;8.30;99.90
22623;DHT22;11478;51.094;7.030;2023-05-25T05:57:33;8.30;99.90
22623;DHT22;11478;51.094;7.030;2023-05-25T06:00:00;8.40;99.90
22623;DHT22;11478;51.094;7.030;2023-05-25T06:02:25;8.60;99.90
22623;DHT22;11478;51.094;7.030;2023-05-25T06:04:55;8.70;99.90
22623;DHT22;11478;51.094;7.030;2023-05-25T06:07:21;8.70;99.90
22623;DHT22;11478;51.094;7.030;2023-05-25T06:09:50;8.80;99.90
22623;DHT22;11478;51.094;7.030;2023-05-25T06:12:16;8.90;99.90
22623;DHT22;11478;51.094;7.030;2023-05-25T06:14:45;9.00;99.90
22623;DHT22;11478;51.094;7.030;2023-05-25T06:17:22;9.10;99.90
22623;DHT22;11478;51.094;7.030;2023-05-25T06:19:49;9.20;99.90
22623;DHT22;11478;51.094;7.030;2023-05-25T06:22:20;9.50;99.90
22623;DHT22;11478;51.094;7.030;2023-05-25T06:24:46;9.60;99.90
22623;DHT22;11478;51.094;7.030;2023-05-25T06:27:18;9.70;99.90
22623;DHT22;11478;51.094;7.030;2023-05-25T06:29:44;9.80;99.90
22623;DHT22;11478;51.094;7.030;2023-05-25T06:32:12;9.90;99.90
22623;DHT22;11478;51.094;7.030;2023-05-25T06:34:38;10.10;99.90
22623;DHT22;11478;51.094;7.030;2023-05-25T06:37:08;10.30;99.90
22623;DHT22;11478;51.094;7.030;2023-05-25T06:39:34;10.50;99.90
22623;DHT22;11478;51.094;7.030;2023-05-25T06:42:00;10.60;99.90
22623;DHT22;11478;51.094;7.030;2023-05-25T06:44:26;10.70;99.90
22623;DHT22;11478;51.094;7.030;2023-05-25T06:46:58;10.90;99.90
22623;DHT22;11478;51.094;7.030;2023-05-25T06:49:24;10.90;99.90
22623;DHT22;11478;51.094;7.030;2023-05-25T06:51:52;11.00;99.90
22623;DHT22;11478;51.094;7.030;2023-05-25T06:54:18;11.10;99.90
22623;DHT22;11478;51.094;7.030;2023-05-25T06:56:51;11.20;99.90
22623;DHT22;11478;51.094;7.030;2023-05-25T06:59:17;11.40;99.90
22623;DHT22;11478;51.094;7.030;2023-05-25T07:01:51;11.60;99.90
22623;DHT22;11478;51.094;7.030;2023-05-25T07:04:18;11.90;99.90
22623;DHT22;11478;51.094;7.030;2023-05-25T07:06:46;12.10;99.90
22623;DHT22;11478;51.094;7.030;2023-05-25T07:09:12;12.30;99.90
22623;DHT22;11478;51.094;7.030;2023-05-25T07:11:38;12.40;99.90
22623;DHT22;11478;51.094;7.030;2023-05-25T07:14:04;12.50;99.90
22623;DHT22;11478;51.094;7.030;2023-05-25T07:16:30;12.60;99.90
22623;DHT22;11478;51.094;7.030;2023-05-25T07:18:59;12.70;99.90
22623;DHT22;11478;51.094;7.030;2023-05-25T07:21:25;12.80;99.90
22623;DHT22;11478;51.094;7.030;2023-05-25T07:23:51;12.90;99.90
22623;DHT22;11478;51.094;7.030;2023-05-25T07:26:17;13.00;99.90
22623;DHT22;11478;51.094;7.030;2023-05-25T07:28:45;13.00;99.90
22623;DHT22;11478;51.094;7.030;2023-05-25T07:31:11;13.10;99.90
22623;DHT22;11478;51.094;7.030;2023-05-25T07:33:40;13.20;99.90
22623;DHT22;11478;51.094;7.030;2023-05-25T07:36:06;13.40;99.90
22623;DHT22;11478;51.094;7.030;2023-05-25T07:38:36;13.50;99.90
22623;DHT22;11478;51.094;7.030;2023-05-25T07:41:02;13.60;99.90
22623;DHT22;11478;51.094;7.030;2023-05-25T07:43:29;13.70;99.90
22623;DHT22;11478;51.094;7.030;2023-05-25T07:45:55;13.80;99.90
22623;DHT22;11478;51.094;7.030;2023-05-25T07:48:26;13.90;99.90
22623;DHT22;11478;51.094;7.030;2023-05-25T07:50:51;14.00;99.90
22623;DHT22;11478;51.094;7.030;2023-05-25T07:53:24;14.10;99.90
22623;DHT22;11478;51.094;7.030;2023-05-25T07:55:50;14.30;99.90
22623;DHT22;11478;51.094;7.030;2023-05-25T07:58:25;14.30;99.90
22623;DHT22;11478;51.094;7.030;2023-05-25T08:00:51;14.30;99.90
22623;DHT22;11478;51.094;7.030;2023-05-25T08:06:35;14.50;99.90
22623;DHT22;11478;51.094;7.030;2023-05-25T08:09:03;14.40;99.90
22623;DHT22;11478;51.094;7.030;2023-05-25T08:17:58;14.60;99.90
22623;DHT22;11478;51.094;7.030;2023-05-25T08:20:24;14.80;99.90
22623;DHT22;11478;51.094;7.030;2023-05-25T08:22:53;15.00;99.90
22623;DHT22;11478;51.094;7.030;2023-05-25T08:25:26;15.00;99.90
22623;DHT22;11478;51.094;7.030;2023-05-25T08:27:52;15.10;99.90
22623;DHT22;11478;51.094;7.030;2023-05-25T08:30:23;15.20;99.90
22623;DHT22;11478;51.094;7.030;2023-05-25T08:32:52;15.30;99.90
22623;DHT22;11478;51.094;7.030;2023-05-25T08:35:30;15.50;99.90
22623;DHT22;11478;51.094;7.030;2023-05-25T08:37:55;15.50;99.90
22623;DHT22;11478;51.094;7.030;2023-05-25T08:40:22;15.60;99.90
22623;DHT22;11478;51.094;7.030;2023-05-25T08:42:51;15.50;99.90
22623;DHT22;11478;51.094;7.030;2023-05-25T08:45:32;15.50;99.90
22623;DHT22;11478;51.094;7.030;2023-05-25T08:47:58;15.50;99.90
22623;DHT22;11478;51.094;7.030;2023-05-25T08:50:31;15.40;99.90
22623;DHT22;11478;51.094;7.030;2023-05-25T08:53:01;15.30;99.90
22623;DHT22;11478;51.094;7.030;2023-05-25T08:55:30;15.20;99.90
22623;DHT22;11478;51.094;7.030;2023-05-25T08:58:09;15.10;99.90
22623;DHT22;11478;51.094;7.030;2023-05-25T09:00:43;15.10;99.90
22623;DHT22;11478;51.094;7.030;2023-05-25T09:03:17;15.00;99.90
22623;DHT22;11478;51.094;7.030;2023-05-25T09:06:09;14.80;99.90
22623;DHT22;11478;51.094;7.030;2023-05-25T09:08:36;14.90;99.90
22623;DHT22;11478;51.094;7.030;2023-05-25T09:11:05;15.00;99.90
22623;DHT22;11478;51.094;7.030;2023-05-25T09:13:32;15.00;99.90
22623;DHT22;11478;51.094;7.030;2023-05-25T09:16:03;15.20;99.90
22623;DHT22;11478;51.094;7.030;2023-05-25T09:18:32;15.40;99.90
22623;DHT22;11478;51.094;7.030;2023-05-25T09:21:03;15.60;99.90
22623;DHT22;11478;51.094;7.030;2023-05-25T09:23:29;15.70;99.90
22623;DHT22;11478;51.094;7.030;2023-05-25T09:26:00;15.80;99.90
22623;DHT22;11478;51.094;7.030;2023-05-25T09:28:26;15.90;99.90
22623;DHT22;11478;51.094;7.030;2023-05-25T09:31:17;15.90;99.90
22623;DHT22;11478;51.094;7.030;2023-05-25T09:33:45;16.00;99.90
22623;DHT22;11478;51.094;7.030;2023-05-25T09:36:17;15.90;99.90
22623;DHT22;11478;51.094;7.030;2023-05-25T09:38:46;15.90;99.90
22623;DHT22;11478;51.094;7.030;2023-05-25T09:41:12;16.00;99.90
22623;DHT22;11478;51.094;7.030;2023-05-25T09:43:38;16.10;99.90
22623;DHT22;11478;51.094;7.030;2023-05-25T09:46:33;16.20;99.90
22623;DHT22;11478;51.094;7.030;2023-05-25T09:49:07;16.20;99.90
22623;DHT22;11478;51.094;7.030;2023-05-25T09:51:36;16.10;99.90
22623;DHT22;11478;51.094;7.030;2023-05-25T09:54:03;16.10;99.90
22623;DHT22;11478;51.094;7.030;2023-05-25T09:56:37;16.10;99.90
22623;DHT22;11478;51.094;7.030;2023-05-25T09:59:03;16.10;99.90
22623;DHT22;11478;51.094;7.030;2023-05-25T10:01:31;16.10;99.90
22623;DHT22;11478;51.094;7.030;2023-05-25T10:03:57;16.00;99.90
22623;DHT22;11478;51.094;7.030;2023-05-25T10:06:27;15.90;99.90
22623;DHT22;11478;51.094;7.030;2023-05-25T10:08:56;15.90;99.90
22623;DHT22;11478;51.094;7.030;2023-05-25T10:11:29;15.90;99.90
22623;DHT22;11478;51.094;7.030;2023-05-25T10:13:58;15.90;99.90
22623;DHT22;11478;51.094;7.030;2023-05-25T10:16:33;16.00;99.90
22623;DHT22;11478;51.094;7.030;2023-05-25T10:19:17;16.00;99.90
22623;DHT22;11478;51.094;7.030;2023-05-25T10:21:54;16.00;99.90
22623;DHT22;11478;51.094;7.030;2023-05-25T10:27:18;16.10;99.90
22623;DHT22;11478;51.094;7.030;2023-05-25T10:29:56;16.30;99.90
22623;DHT22;11478;51.094;7.030;2023-05-25T10:32:27;16.40;99.90
22623;DHT22;11478;51.094;7.030;2023-05-25T10:34:55;16.50;99.90
22623;DHT22;11478;51.094;7.030;2023-05-25T10:37:39;16.60;99.90
22623;DHT22;11478;51.094;7.030;2023-05-25T10:40:06;16.60;99.90
22623;DHT22;11478;51.094;7.030;2023-05-25T10:42:39;16.50;99.90
22623;DHT22;11478;51.094;7.030;2023-05-25T10:45:07;16.30;99.90
22623;DHT22;11478;51.094;7.030;2023-05-25T10:47:39;16.20;99.90
22623;DHT22;11478;51.094;7.030;2023-05-25T10:50:27;16.10;99.90
22623;DHT22;11478;51.094;7.030;2023-05-25T10:53:13;16.00;99.90
22623;DHT22;11478;51.094;7.030;2023-05-25T10:55:42;15.80;99.90
22623;DHT22;11478;51.094;7.030;2023-05-25T10:58:15;15.80;99.90
22623;DHT22;11478;51.094;7.030;2023-05-25T11:00:42;15.70;99.90
22623;DHT22;11478;51.094;7.030;2023-05-25T11:03:19;15.70;99.90
22623;DHT22;11478;51.094;7.030;2023-05-25T11:05:49;15.90;99.90
22623;DHT22;11478;51.094;7.030;2023-05-25T11:08:51;16.00;99.90
22623;DHT22;11478;51.094;7.030;2023-05-25T11:14:34;16.00;99.90
22623;DHT22;11478;51.094;7.030;2023-05-25T11:17:14;15.90;99.90
22623;DHT22;11478;51.094;7.030;2023-05-25T11:20:11;15.90;99.90
22623;DHT22;11478;51.094;7.030;2023-05-25T11:22:49;16.00;99.90
22623;DHT22;11478;51.094;7.030;2023-05-25T11:25:42;16.10;99.90
22623;DHT22;11478;51.094;7.030;2023-05-25T11:28:08;16.20;99.90
22623;DHT22;11478;51.094;7.030;2023-05-25T11:30:45;16.30;99.90
22623;DHT22;11478;51.094;7.030;2023-05-25T11:33:14;16.30;99.90
22623;DHT22;11478;51.094;7.030;2023-05-25T11:35:42;16.20;99.90
22623;DHT22;11478;51.094;7.030;2023-05-25T11:38:09;16.20;99.90
22623;DHT22;11478;51.094;7.030;2023-05-25T11:40:35;16.10;99.90
22623;DHT22;11478;51.094;7.030;2023-05-25T11:43:02;16.00;99.90
22623;DHT22;11478;51.094;7.030;2023-05-25T11:45:40;15.80;99.90
22623;DHT22;11478;51.094;7.030;2023-05-25T11:48:06;15.80;99.90
22623;DHT22;11478;51.094;7.030;2023-05-25T11:53:45;15.60;99.90
22623;DHT22;11478;51.094;7.030;2023-05-25T11:56:22;15.50;99.90
22623;DHT22;11478;51.094;7.030;2023-05-25T11:58:51;15.50;99.90
22623;DHT22;11478;51.094;7.030;2023-05-25T12:01:22;15.40;99.90
22623;DHT22;11478;51.094;7.030;2023-05-25T12:03:53;15.50;99.90
22623;DHT22;11478;51.094;7.030;2023-05-25T12:06:39;15.50;99.90
22623;DHT22;11478;51.094;7.030;2023-05-25T12:09:10;15.40;99.90
22623;DHT22;11478;51.094;7.030;2023-05-25T12:11:38;15.50;99.90
22623;DHT22;11478;51.094;7.030;2023-05-25T12:14:06;15.40;99.90
22623;DHT22;11478;51.094;7.030;2023-05-25T12:16:37;15.40;99.90
22623;DHT22;11478;51.094;7.030;2023-05-25T12:19:14;15.50;99.90
22623;DHT22;11478;51.094;7.030;2023-05-25T12:21:41;15.50;99.90
22623;DHT22;11478;51.094;7.030;2023-05-25T12:24:09;15.50;99.90
22623;DHT22;11478;51.094;7.030;2023-05-25T12:26:48;15.60;99.90
22623;DHT22;11478;51.094;7.030;2023-05-25T12:29:18;15.50;99.90
22623;DHT22;11478;51.094;7.030;2023-05-25T12:31:45;15.40;99.90
22623;DHT22;11478;51.094;7.030;2023-05-25T12:34:15;15.50;99.90
22623;DHT22;11478;51.094;7.030;2023-05-25T12:39:36;15.60;99.90
22623;DHT22;11478;51.094;7.030;2023-05-25T12:42:04;15.50;99.90
22623;DHT22;11478;51.094;7.030;2023-05-25T12:44:41;15.60;99.90
22623;DHT22;11478;51.094;7.030;2023-05-25T12:47:19;15.60;99.90
22623;DHT22;11478;51.094;7.030;2023-05-25T12:49:53;15.60;99.90
22623;DHT22;11478;51.094;7.030;2023-05-25T12:52:45;15.60;99.90
22623;DHT22;11478;51.094;7.030;2023-05-25T12:55:26;15.70;99.90
22623;DHT22;11478;51.094;7.030;2023-05-25T12:58:39;15.60;99.90
22623;DHT22;11478;51.094;7.030;2023-05-25T13:01:17;15.70;99.90
22623;DHT22;11478;51.094;7.030;2023-05-25T13:03:44;15.80;99.90
22623;DHT22;11478;51.094;7.030;2023-05-25T13:06:10;15.90;99.90
22623;DHT22;11478;51.094;7.030;2023-05-25T13:09:05;16.00;99.90
22623;DHT22;11478;51.094;7.030;2023-05-25T13:11:49;16.00;99.90
22623;DHT22;11478;51.094;7.030;2023-05-25T13:14:15;16.00;99.90
22623;DHT22;11478;51.094;7.030;2023-05-25T13:16:48;16.00;99.90
22623;DHT22;11478;51.094;7.030;2023-05-25T13:19:14;16.10;99.90
22623;DHT22;11478;51.094;7.030;2023-05-25T13:21:42;16.10;99.90
22623;DHT22;11478;51.094;7.030;2023-05-25T13:24:07;16.20;99.90
22623;DHT22;11478;51.094;7.030;2023-05-25T13:26:41;16.20;99.90
22623;DHT22;11478;51.094;7.030;2023-05-25T13:29:10;16.30;99.90
22623;DHT22;11478;51.094;7.030;2023-05-25T13:31:36;16.30;99.90
22623;DHT22;11478;51.094;7.030;2023-05-25T13:34:02;16.40;99.90
22623;DHT22;11478;51.094;7.030;2023-05-25T13:36:33;16.40;99.90
22623;DHT22;11478;51.094;7.030;2023-05-25T13:39:05;16.40;99.90
22623;DHT22;11478;51.094;7.030;2023-05-25T13:41:41;16.50;99.90
22623;DHT22;11478;51.094;7.030;2023-05-25T13:44:10;16.50;99.90
22623;DHT22;11478;51.094;7.030;2023-05-25T13:46:41;16.50;99.90
22623;DHT22;11478;51.094;7.030;2023-05-25T13:49:07;16.50;99.90
22623;DHT22;11478;51.094;7.030;2023-05-25T13:51:35;16.50;99.90
22623;DHT22;11478;51.094;7.030;2023-05-25T13:54:05;16.60;99.90
22623;DHT22;11478;51.094;7.030;2023-05-25T13:56:48;16.60;99.90
22623;DHT22;11478;51.094;7.030;2023-05-25T13:59:15;16.60;99.90
22623;DHT22;11478;51.094;7.030;2023-05-25T14:01:42;16.70;99.90
22623;DHT22;11478;51.094;7.030;2023-05-25T14:04:08;16.80;99.90
22623;DHT22;11478;51.094;7.030;2023-05-25T14:06:42;16.80;99.90
22623;DHT22;11478;51.094;7.030;2023-05-25T14:09:09;16.80;99.90
22623;DHT22;11478;51.094;7.030;2023-05-25T14:11:48;16.70;99.90
22623;DHT22;11478;51.094;7.030;2023-05-25T14:14:17;16.80;99.90
22623;DHT22;11478;51.094;7.030;2023-05-25T14:16:47;16.90;99.90
22623;DHT22;11478;51.094;7.030;2023-05-25T14:19:16;16.90;99.90
22623;DHT22;11478;51.094;7.030;2023-05-25T14:21:42;16.90;99.90
22623;DHT22;11478;51.094;7.030;2023-05-25T14:24:08;16.90;99.90
22623;DHT22;11478;51.094;7.030;2023-05-25T14:26:38;17.00;99.90
22623;DHT22;11478;51.094;7.030;2023-05-25T14:29:06;17.10;99.90
22623;DHT22;11478;51.094;7.030;2023-05-25T14:31:35;17.00;99.90
22623;DHT22;11478;51.094;7.030;2023-05-25T14:34:04;17.00;99.90
22623;DHT22;11478;51.094;7.030;2023-05-25T14:36:34;16.90;99.90
22623;DHT22;11478;51.094;7.030;2023-05-25T14:39:08;16.90;99.90
22623;DHT22;11478;51.094;7.030;2023-05-25T14:41:37;16.80;99.90
22623;DHT22;11478;51.094;7.030;2023-05-25T14:44:05;16.80;99.90
22623;DHT22;11478;51.094;7.030;2023-05-25T14:46:34;16.80;99.90
22623;DHT22;11478;51.094;7.030;2023-05-25T14:49:09;16.70;99.90
22623;DHT22;11478;51.094;7.030;2023-05-25T14:51:35;16.70;99.90
22623;DHT22;11478;51.094;7.030;2023-05-25T14:54:09;16.60;99.90
22623;DHT22;11478;51.094;7.030;2023-05-25T14:56:43;16.40;99.90
22623;DHT22;11478;51.094;7.030;2023-05-25T14:59:11;16.40;99.90
22623;DHT22;11478;51.094;7.030;2023-05-25T15:01:37;16.40;99.90
22623;DHT22;11478;51.094;7.030;2023-05-25T15:04:11;16.50;99.90
22623;DHT22;11478;51.094;7.030;2023-05-25T15:06:40;16.50;99.90
22623;DHT22;11478;51.094;7.030;2023-05-25T15:09:18;16.60;99.90
22623;DHT22;11478;51.094;7.030;2023-05-25T15:11:44;16.60;99.90
22623;DHT22;11478;51.094;7.030;2023-05-25T15:14:20;16.60;99.90
22623;DHT22;11478;51.094;7.030;2023-05-25T15:16:45;16.70;99.90
22623;DHT22;11478;51.094;7.030;2023-05-25T15:19:11;16.80;99.90
22623;DHT22;11478;51.094;7.030;2023-05-25T15:21:51;16.90;99.90
22623;DHT22;11478;51.094;7.030;2023-05-25T15:24:17;17.00;99.90
22623;DHT22;11478;51.094;7.030;2023-05-25T15:26:44;16.90;99.90
22623;DHT22;11478;51.094;7.030;2023-05-25T15:29:11;16.90;99.90
22623;DHT22;11478;51.094;7.030;2023-05-25T15:31:55;17.00;99.90
22623;DHT22;11478;51.094;7.030;2023-05-25T15:34:21;16.90;99.90
22623;DHT22;11478;51.094;7.030;2023-05-25T15:36:56;16.90;99.90
22623;DHT22;11478;51.094;7.030;2023-05-25T15:39:22;16.90;99.90
22623;DHT22;11478;51.094;7.030;2023-05-25T15:41:49;16.70;99.90
22623;DHT22;11478;51.094;7.030;2023-05-25T15:44:15;16.60;99.90
22623;DHT22;11478;51.094;7.030;2023-05-25T15:46:46;16.60;99.90
22623;DHT22;11478;51.094;7.030;2023-05-25T15:49:18;16.60;99.90
22623;DHT22;11478;51.094;7.030;2023-05-25T15:51:57;16.60;99.90
22623;DHT22;11478;51.094;7.030;2023-05-25T15:54:29;16.70;99.90
22623;DHT22;11478;51.094;7.030;2023-05-25T15:57:01;16.70;99.90
22623;DHT22;11478;51.094;7.030;2023-05-25T15:59:27;16.70;99.90
22623;DHT22;11478;51.094;7.030;2023-05-25T16:02:27;16.60;99.90
22623;DHT22;11478;51.094;7.030;2023-05-25T16:14:49;16.60;99.90
22623;DHT22;11478;51.094;7.030;2023-05-25T16:17:24;16.60;99.90
22623;DHT22;11478;51.094;7.030;2023-05-25T16:19:57;16.60;99.90
22623;DHT22;11478;51.094;7.030;2023-05-25T16:22:23;16.60;99.90
22623;DHT22;11478;51.094;7.030;2023-05-25T16:24:51;16.70;99.90
22623;DHT22;11478;51.094;7.030;2023-05-25T16:27:57;16.70;99.90
22623;DHT22;11478;51.094;7.030;2023-05-25T16:30:23;16.80;99.90
22623;DHT22;11478;51.094;7.030;2023-05-25T16:32:57;16.80;99.90
22623;DHT22;11478;51.094;7.030;2023-05-25T16:35:45;16.80;99.90
22623;DHT22;11478;51.094;7.030;2023-05-25T16:45:27;17.10;99.90
22623;DHT22;11478;51.094;7.030;2023-05-25T16:51:31;17.30;99.90